Time;durP1;ratioP1;P1;durP2;ratioP2;P2;SDS_P1;SDS_P2;PMS_P1;PMS_P2;Temp;Humidity;BMP_temperature;BMP_pressure;BME280_temperature;BME280_humidity;BME280_pressure;Samples;Min_cycle;Max_cycle;Signal;HPM_P1;HPM_P2
2021/07/07 00:01:44;;;;;;;4.48;1.10;;;;;;;20.12;64.36;99942.19;126058;1093;22885;-57
2021/07/07 00:04:17;;;;;;;4.68;1.20;;;;;;;20.08;64.08;99929.67;125808;1093;25529;-58
2021/07/07 00:06:48;;;;;;;3.40;1.10;;;;;;;20.04;64.29;99932.86;125835;1093;27367;-57
2021/07/07 00:09:22;;;;;;;5.73;1.20;;;;;;;19.99;64.78;99936.57;125769;1093;24474;-56
2021/07/07 00:11:55;;;;;;;4.85;1.30;;;;;;;19.94;64.70;99928.98;125959;1093;24468;-59
2021/07/07 00:14:27;;;;;;;6.83;1.30;;;;;;;19.92;64.96;99933.67;125860;1093;23484;-56
2021/07/07 00:16:59;;;;;;;6.00;1.20;;;;;;;19.88;64.83;99939.69;125791;1093;22794;-58
2021/07/07 00:19:31;;;;;;;8.53;1.20;;;;;;;19.83;64.90;99937.73;125793;1092;22770;-56
2021/07/07 00:22:02;;;;;;;4.78;1.25;;;;;;;19.76;65.36;99929.17;125906;1093;22844;-58
2021/07/07 00:24:34;;;;;;;5.93;1.18;;;;;;;19.69;64.99;99927.00;125809;1093;22821;-57
2021/07/07 00:27:06;;;;;;;8.78;1.83;;;;;;;19.63;64.94;99929.20;125979;1093;22755;-57
2021/07/07 00:29:37;;;;;;;5.57;1.40;;;;;;;19.56;65.08;99932.70;125848;1093;22760;-56
2021/07/07 00:32:11;;;;;;;6.20;1.28;;;;;;;19.48;65.40;99931.85;125788;1093;24429;-59
2021/07/07 00:34:42;;;;;;;4.80;1.10;;;;;;;19.41;65.50;99930.45;125955;1093;24429;-59
2021/07/07 00:37:14;;;;;;;6.55;1.30;;;;;;;19.37;65.58;99934.94;125743;1093;22768;-59
2021/07/07 00:39:47;;;;;;;2.78;1.10;;;;;;;19.31;65.35;99940.67;126012;1093;25919;-57
2021/07/07 00:42:19;;;;;;;4.83;1.40;;;;;;;19.27;65.59;99943.84;125842;1093;22769;-56
2021/07/07 00:44:51;;;;;;;6.10;1.30;;;;;;;19.25;65.93;99945.70;125898;1091;22764;-57
2021/07/07 00:47:22;;;;;;;4.28;1.30;;;;;;;19.22;65.64;99958.13;125884;1093;22764;-56
2021/07/07 00:49:54;;;;;;;5.13;1.20;;;;;;;19.17;66.03;99956.16;125933;1093;22814;-57
2021/07/07 00:52:25;;;;;;;4.93;1.30;;;;;;;19.10;66.17;99954.73;125784;1093;27204;-57
2021/07/07 00:54:58;;;;;;;4.70;1.30;;;;;;;19.07;66.45;99952.25;125787;1093;22788;-58
2021/07/07 00:57:34;;;;;;;3.23;1.00;;;;;;;18.95;66.49;99953.78;125976;1093;22771;-56
2021/07/07 01:00:09;;;;;;;7.97;1.37;;;;;;;18.92;66.65;99960.52;125885;1093;22767;-56
2021/07/07 01:02:44;;;;;;;5.33;1.17;;;;;;;18.90;66.43;99955.41;125894;1093;25550;-58
2021/07/07 01:05:17;;;;;;;5.45;1.40;;;;;;;18.88;66.68;99957.25;125881;1092;22797;-56
2021/07/07 01:07:49;;;;;;;7.78;1.30;;;;;;;18.90;66.97;99963.89;125944;1093;22776;-58
2021/07/07 01:10:21;;;;;;;4.53;1.17;;;;;;;18.86;66.80;99957.80;125803;1093;22793;-58
2021/07/07 01:12:55;;;;;;;9.63;2.07;;;;;;;18.82;67.00;99956.59;125871;1093;26582;-58
2021/07/07 01:15:27;;;;;;;4.55;0.95;;;;;;;18.77;67.03;99946.91;125942;1093;24589;-58
2021/07/07 01:17:59;;;;;;;4.80;1.20;;;;;;;18.75;67.20;99960.05;125826;1092;22822;-59
2021/07/07 01:20:30;;;;;;;6.67;1.23;;;;;;;18.71;67.16;99957.56;125814;1093;22770;-55
2021/07/07 01:23:03;;;;;;;8.08;1.30;;;;;;;18.71;67.44;99966.05;125835;1093;22764;-55
2021/07/07 01:25:35;;;;;;;7.23;1.70;;;;;;;18.70;67.58;99964.53;126016;1093;25871;-58
2021/07/07 01:28:07;;;;;;;5.45;1.30;;;;;;;18.69;67.91;99963.00;125961;1093;26509;-57
2021/07/07 01:30:39;;;;;;;6.90;1.43;;;;;;;18.68;68.01;99969.20;126069;1093;22797;-58
2021/07/07 01:33:11;;;;;;;6.30;1.30;;;;;;;18.67;67.93;99970.49;125977;1093;22765;-56
2021/07/07 01:35:44;;;;;;;6.93;1.30;;;;;;;18.62;68.05;99969.31;125760;1093;22887;-57
2021/07/07 01:38:16;;;;;;;5.83;1.27;;;;;;;18.58;67.91;99977.32;125903;1093;22793;-57
2021/07/07 01:40:48;;;;;;;6.75;1.30;;;;;;;18.54;68.09;99980.48;125778;1093;22790;-57
2021/07/07 01:43:20;;;;;;;4.97;1.20;;;;;;;18.50;68.19;99977.20;125871;1093;22764;-57
2021/07/07 01:45:51;;;;;;;4.45;1.15;;;;;;;18.45;67.99;99982.97;126196;1093;22794;-58
2021/07/07 01:48:23;;;;;;;3.77;1.17;;;;;;;18.42;68.25;99986.83;125763;1093;22785;-57
2021/07/07 01:50:55;;;;;;;5.60;1.20;;;;;;;18.36;68.71;99967.15;125718;1093;22797;-55
2021/07/07 01:53:27;;;;;;;6.10;1.30;;;;;;;18.31;68.29;99975.73;125749;1093;22768;-55
2021/07/07 01:55:58;;;;;;;4.03;1.20;;;;;;;18.29;68.27;99961.38;125766;1093;22777;-57
2021/07/07 01:58:30;;;;;;;4.35;1.05;;;;;;;18.26;68.31;99960.39;125725;1092;22816;-55
2021/07/07 02:01:02;;;;;;;7.75;1.50;;;;;;;18.24;68.52;99957.34;125712;1093;26696;-58
2021/07/07 02:03:33;;;;;;;6.20;1.20;;;;;;;18.21;68.56;99957.64;125797;1093;22820;-57
2021/07/07 02:06:05;;;;;;;4.60;1.20;;;;;;;18.19;68.68;99955.36;125710;1092;27173;-56
2021/07/07 02:08:37;;;;;;;5.87;1.23;;;;;;;18.17;68.87;99952.30;125963;1093;22778;-58
2021/07/07 02:11:09;;;;;;;4.80;1.20;;;;;;;18.15;68.82;99960.56;125866;1093;22764;-58
2021/07/07 02:13:40;;;;;;;5.55;1.30;;;;;;;18.13;69.14;99963.16;125961;1092;22844;-58
2021/07/07 02:16:11;;;;;;;5.60;1.40;;;;;;;18.13;69.18;99965.98;125666;1093;22766;-61
2021/07/07 02:18:43;;;;;;;3.75;1.05;;;;;;;18.12;69.65;99963.70;125640;1093;24467;-56
2021/07/07 02:21:14;;;;;;;5.70;1.30;;;;;;;18.10;69.67;99960.66;125646;1093;27670;-55
2021/07/07 02:23:45;;;;;;;6.60;1.30;;;;;;;18.11;69.33;99962.94;125735;1093;26715;-56
2021/07/07 02:26:17;;;;;;;4.47;1.03;;;;;;;18.09;69.22;99964.77;125732;1093;22796;-56
2021/07/07 02:28:48;;;;;;;5.80;1.20;;;;;;;18.05;69.22;99975.63;125845;1093;27564;-58
2021/07/07 02:31:22;;;;;;;5.30;1.25;;;;;;;18.00;69.36;99982.14;125748;1093;22796;-57
2021/07/07 02:33:54;;;;;;;9.40;1.60;;;;;;;17.94;69.65;99987.84;125882;1093;22794;-57
2021/07/07 02:36:25;;;;;;;7.55;1.05;;;;;;;17.78;69.93;99988.86;125735;1093;22800;-59
2021/07/07 02:38:57;;;;;;;6.20;1.10;;;;;;;17.60;70.47;100006.57;125753;1093;29698;-58
2021/07/07 02:41:28;;;;;;;5.50;1.30;;;;;;;17.47;70.85;100014.91;125706;1093;25404;-58
2021/07/07 02:44:00;;;;;;;9.05;1.50;;;;;;;17.39;71.00;100014.76;125762;1093;27298;-56
2021/07/07 02:46:33;;;;;;;7.93;1.67;;;;;;;17.43;71.00;100014.45;125923;1092;25852;-56
2021/07/07 02:49:06;;;;;;;9.55;2.15;;;;;;;17.42;71.54;100021.41;125922;1093;22844;-57
2021/07/07 02:51:37;;;;;;;7.53;1.80;;;;;;;17.40;71.43;100024.73;125873;1093;24462;-59
2021/07/07 02:54:09;;;;;;;6.80;1.60;;;;;;;17.40;71.84;100018.35;125905;1093;22766;-60
2021/07/07 02:56:40;;;;;;;7.90;1.60;;;;;;;17.45;71.65;100026.73;125758;1093;22794;-57
2021/07/07 02:59:13;;;;;;;7.80;1.50;;;;;;;17.48;71.75;100020.05;125744;1093;22793;-57
2021/07/07 03:01:45;;;;;;;5.50;1.40;;;;;;;17.49;72.12;100030.05;125995;1093;22821;-56
2021/07/07 03:04:16;;;;;;;10.90;2.10;;;;;;;17.50;71.68;100030.83;125862;1093;22790;-57
2021/07/07 03:06:48;;;;;;;6.70;1.40;;;;;;;17.55;72.28;100010.98;125738;1093;26468;-57
2021/07/07 03:09:19;;;;;;;10.95;1.80;;;;;;;17.58;72.46;100023.28;125770;1093;22752;-57
2021/07/07 03:11:50;;;;;;;8.40;1.65;;;;;;;17.60;72.93;100020.69;125773;1093;22864;-58
2021/07/07 03:14:22;;;;;;;9.93;2.17;;;;;;;17.60;72.62;100026.33;125796;1092;22816;-58
2021/07/07 03:16:55;;;;;;;7.90;1.80;;;;;;;17.59;72.71;100039.67;125862;1093;22742;-57
2021/07/07 03:19:27;;;;;;;5.90;1.90;;;;;;;17.61;73.07;100056.07;125857;1093;22797;-57
2021/07/07 03:21:59;;;;;;;7.35;2.10;;;;;;;17.63;72.85;100045.01;125782;1093;22767;-57
2021/07/07 03:24:31;;;;;;;8.45;2.20;;;;;;;17.65;73.23;100054.48;125835;1093;22800;-55
2021/07/07 03:27:04;;;;;;;9.80;2.40;;;;;;;17.65;73.24;100046.01;125768;1093;22794;-57
2021/07/07 03:29:35;;;;;;;6.67;1.63;;;;;;;17.68;73.83;100047.78;125924;1093;23470;-57
2021/07/07 03:32:08;;;;;;;7.40;2.20;;;;;;;17.68;73.74;100050.60;125832;1093;27705;-57
2021/07/07 03:34:39;;;;;;;9.40;2.10;;;;;;;17.67;73.30;100034.20;126007;1093;25871;-57
2021/07/07 03:37:10;;;;;;;8.00;1.70;;;;;;;17.71;73.75;100052.34;125782;1092;26592;-57
2021/07/07 03:39:42;;;;;;;10.45;2.10;;;;;;;17.74;73.58;100040.00;125793;1092;22764;-59
2021/07/07 03:42:14;;;;;;;7.35;1.90;;;;;;;17.76;74.10;100053.58;125843;1093;26742;-57
2021/07/07 03:44:46;;;;;;;7.45;1.85;;;;;;;17.75;73.90;100057.70;125733;1093;26271;-54
2021/07/07 03:47:17;;;;;;;10.05;2.30;;;;;;;17.75;74.39;100057.70;126018;1093;22898;-56
2021/07/07 03:49:50;;;;;;;8.15;2.05;;;;;;;17.78;74.01;100057.39;125820;1093;22767;-55
2021/07/07 03:52:21;;;;;;;6.40;2.10;;;;;;;17.83;74.18;100058.63;125759;1092;22867;-55
2021/07/07 03:54:53;;;;;;;10.70;2.50;;;;;;;17.86;74.16;100063.19;125874;1093;22790;-58
2021/07/07 03:57:24;;;;;;;8.95;2.20;;;;;;;17.87;73.89;100056.26;125760;1093;23070;-58
2021/07/07 03:59:56;;;;;;;10.50;2.50;;;;;;;17.90;74.50;100062.91;125828;1092;24430;-58
2021/07/07 04:02:28;;;;;;;9.00;2.30;;;;;;;17.90;74.13;100069.30;125711;1092;22872;-56
2021/07/07 04:04:59;;;;;;;12.40;2.00;;;;;;;17.89;74.36;100078.31;125781;1093;22804;-58
2021/07/07 04:07:31;;;;;;;12.00;2.20;;;;;;;17.87;74.48;100076.03;125633;1093;22986;-56
2021/07/07 04:10:05;;;;;;;9.75;2.30;;;;;;;17.90;74.80;100085.50;126129;1093;22804;-58
2021/07/07 04:12:37;;;;;;;10.13;2.13;;;;;;;17.91;75.21;100095.48;125683;1093;27282;-57
2021/07/07 04:15:10;;;;;;;9.75;1.90;;;;;;;17.93;75.39;100092.89;125716;1093;27558;-56
2021/07/07 04:17:44;;;;;;;10.50;2.40;;;;;;;17.96;75.96;100086.92;125751;1093;22774;-55
2021/07/07 04:20:18;;;;;;;8.17;2.07;;;;;;;18.02;75.67;100093.27;125665;1093;22847;-56
2021/07/07 04:22:51;;;;;;;8.85;1.75;;;;;;;18.10;76.20;100104.73;126019;1093;25868;-56
2021/07/07 04:25:24;;;;;;;8.50;2.00;;;;;;;18.20;76.17;100106.64;125878;1093;22788;-57
2021/07/07 04:27:56;;;;;;;11.85;2.10;;;;;;;18.31;76.31;100109.30;125889;1093;22841;-55
2021/07/07 04:30:27;;;;;;;13.55;3.55;;;;;;;18.45;76.42;100108.11;125751;1093;22791;-57
2021/07/07 04:32:59;;;;;;;10.00;1.70;;;;;;;18.60;76.61;100112.52;125724;1093;23277;-58
2021/07/07 04:35:31;;;;;;;9.30;2.10;;;;;;;18.75;76.40;100109.94;125751;1093;22867;-55
2021/07/07 04:38:03;;;;;;;7.40;1.80;;;;;;;18.90;76.73;100125.13;125914;1091;22845;-55
2021/07/07 04:40:36;;;;;;;8.55;1.90;;;;;;;19.04;76.24;100106.10;125901;1093;27224;-58
2021/07/07 04:43:10;;;;;;;8.60;1.50;;;;;;;19.17;76.50;100123.88;125834;1093;23286;-56
2021/07/07 04:45:42;;;;;;;9.97;2.10;;;;;;;19.31;76.30;100124.66;125818;1092;22868;-57
2021/07/07 04:48:13;;;;;;;10.00;1.80;;;;;;;19.40;76.43;100118.61;125721;1093;22820;-57
2021/07/07 04:50:45;;;;;;;5.60;1.40;;;;;;;19.48;75.78;100125.14;125760;1093;22791;-57
2021/07/07 04:53:17;;;;;;;7.20;1.33;;;;;;;19.55;76.36;100115.23;125698;1093;22791;-58
2021/07/07 04:55:49;;;;;;;5.60;1.43;;;;;;;19.61;75.96;100113.06;125841;1093;25871;-59
2021/07/07 04:58:25;;;;;;;7.17;1.30;;;;;;;19.67;75.86;100119.38;125765;1093;22961;-55
2021/07/07 05:00:56;;;;;;;8.30;1.53;;;;;;;19.75;75.88;100117.41;125705;1093;24190;-55
2021/07/07 05:03:30;;;;;;;6.57;1.50;;;;;;;19.85;75.97;100126.98;125678;1093;22777;-57
2021/07/07 05:06:02;;;;;;;9.20;1.48;;;;;;;19.98;75.98;100124.14;125922;1092;25932;-58
2021/07/07 05:08:33;;;;;;;4.47;1.40;;;;;;;20.13;75.48;100116.58;125940;1092;22795;-58
2021/07/07 05:11:05;;;;;;;7.47;1.60;;;;;;;20.29;75.28;100114.73;125823;1093;22764;-58
2021/07/07 05:13:37;;;;;;;4.53;1.30;;;;;;;20.41;74.90;100121.66;125905;1093;23002;-56
2021/07/07 05:16:09;;;;;;;7.30;1.43;;;;;;;20.54;74.77;100115.95;125833;1092;26279;-55
2021/07/07 05:18:41;;;;;;;8.20;1.50;;;;;;;20.63;74.44;100118.30;126023;1092;25868;-59
2021/07/07 05:21:13;;;;;;;8.08;1.38;;;;;;;20.72;74.10;100109.33;125879;1092;26684;-56
2021/07/07 05:23:45;;;;;;;5.10;1.37;;;;;;;20.83;73.87;100111.89;125817;1093;22816;-57
2021/07/07 05:26:17;;;;;;;9.25;1.40;;;;;;;20.92;74.12;100114.23;125862;1093;27924;-59
2021/07/07 05:28:52;;;;;;;7.78;1.30;;;;;;;21.02;73.54;100120.23;125899;1092;26633;-55
2021/07/07 05:31:24;;;;;;;6.50;1.50;;;;;;;21.09;73.14;100105.32;125687;1093;27635;-56
2021/07/07 05:33:55;;;;;;;6.60;1.20;;;;;;;21.20;73.33;100118.47;125710;1093;22886;-58
2021/07/07 05:36:27;;;;;;;7.60;1.53;;;;;;;21.30;72.70;100125.16;125690;1093;28615;-58
2021/07/07 05:38:58;;;;;;;5.00;1.30;;;;;;;21.38;72.88;100123.91;126067;1092;22797;-60
2021/07/07 05:41:29;;;;;;;7.37;1.13;;;;;;;21.51;72.54;100126.66;126006;1093;22847;-56
2021/07/07 05:44:01;;;;;;;4.07;1.17;;;;;;;21.65;71.10;100133.75;125743;1091;22795;-58
2021/07/07 05:46:33;;;;;;;7.43;1.08;;;;;;;21.79;70.27;100134.39;125614;1093;26935;-62
2021/07/07 05:49:05;;;;;;;7.20;1.20;;;;;;;21.90;69.72;100144.70;126100;1091;22815;-58
2021/07/07 05:51:37;;;;;;;5.30;1.08;;;;;;;22.04;69.67;100158.24;125812;1091;22788;-58
2021/07/07 05:54:18;;;;;;;5.40;1.00;;;;;;;22.19;68.84;100155.48;125605;1093;22797;-58
2021/07/07 05:56:51;;;;;;;4.23;0.90;;;;;;;22.31;66.95;100158.73;125786;1092;22924;-58
2021/07/07 05:59:22;;;;;;;5.23;0.90;;;;;;;22.41;67.65;100156.88;125888;1092;22791;-56
2021/07/07 06:01:54;;;;;;;11.75;0.78;;;;;;;22.49;66.84;100160.53;125812;1092;22768;-56
2021/07/07 06:04:27;;;;;;;8.28;0.88;;;;;;;22.57;66.55;100152.77;126609;1093;23446;-62
2021/07/07 06:07:00;;;;;;;3.70;0.90;;;;;;;22.63;66.63;100161.16;125941;1093;22797;-58
2021/07/07 06:09:36;;;;;;;3.05;0.60;;;;;;;22.62;66.79;100160.39;125825;1093;22805;-62
2021/07/07 06:12:11;;;;;;;13.17;0.90;;;;;;;22.65;65.85;100164.20;125861;1092;22790;-58
2021/07/07 06:14:44;;;;;;;2.73;0.60;;;;;;;22.64;65.67;100162.69;125841;1093;23085;-62
2021/07/07 06:17:16;;;;;;;2.98;0.70;;;;;;;22.63;65.29;100164.77;125989;1093;23389;-58
2021/07/07 06:19:47;;;;;;;7.35;0.80;;;;;;;22.64;65.14;100169.12;125810;1093;22924;-59
2021/07/07 06:22:19;;;;;;;3.18;0.73;;;;;;;22.66;64.33;100157.19;125804;1093;22767;-60
2021/07/07 06:24:52;;;;;;;4.75;0.63;;;;;;;22.65;64.40;100145.05;125782;1091;26694;-60
2021/07/07 06:27:24;;;;;;;4.80;0.60;;;;;;;22.74;64.36;100146.59;125827;1093;22796;-60
2021/07/07 06:29:56;;;;;;;8.40;0.70;;;;;;;22.76;63.25;100143.94;125695;1093;22717;-57
2021/07/07 06:32:27;;;;;;;8.03;0.90;;;;;;;22.75;63.56;100160.24;125681;1093;23284;-59
2021/07/07 06:35:01;;;;;;;4.90;0.65;;;;;;;22.81;63.12;100154.36;125815;1093;22767;-59
2021/07/07 06:37:33;;;;;;;7.88;0.88;;;;;;;22.87;62.79;100149.24;125753;1092;22771;-58
2021/07/07 06:40:07;;;;;;;8.10;0.85;;;;;;;22.97;62.96;100144.52;125960;1093;24167;-58
2021/07/07 06:42:39;;;;;;;3.13;0.78;;;;;;;23.06;62.92;100141.11;125661;1092;24442;-59
2021/07/07 06:45:13;;;;;;;4.13;0.70;;;;;;;23.16;62.37;100147.75;125728;1093;22805;-58
2021/07/07 06:47:44;;;;;;;6.38;0.88;;;;;;;23.23;62.53;100144.92;125874;1093;25845;-58
2021/07/07 06:50:17;;;;;;;6.13;1.13;;;;;;;23.29;62.14;100142.64;125688;1093;22936;-60
2021/07/07 06:52:49;;;;;;;3.70;1.00;;;;;;;23.36;61.97;100131.84;125706;1093;25845;-60
2021/07/07 06:55:22;;;;;;;10.55;0.98;;;;;;;23.41;61.63;100151.58;125776;1093;22796;-58
2021/07/07 06:57:53;;;;;;;5.30;0.98;;;;;;;23.40;60.79;100141.53;125726;1093;22815;-58
2021/07/07 07:00:26;;;;;;;6.43;0.95;;;;;;;23.38;60.71;100151.97;125664;1093;22767;-59
2021/07/07 07:02:59;;;;;;;4.25;0.83;;;;;;;23.39;61.52;100151.39;125715;1093;25574;-57
2021/07/07 07:05:34;;;;;;;8.25;1.08;;;;;;;23.45;61.27;100145.49;125756;1091;22770;-59
2021/07/07 07:08:06;;;;;;;7.33;1.10;;;;;;;23.51;61.37;100146.82;125822;1093;22770;-58
2021/07/07 07:10:38;;;;;;;2.80;0.77;;;;;;;23.60;61.46;100154.03;125740;1093;27869;-58
2021/07/07 07:13:11;;;;;;;5.20;0.95;;;;;;;23.65;60.85;100158.78;125712;1093;22767;-56
2021/07/07 07:15:46;;;;;;;4.65;1.00;;;;;;;23.67;61.09;100165.41;125668;1093;22745;-58
2021/07/07 07:18:21;;;;;;;5.48;1.50;;;;;;;23.72;60.79;100161.61;126024;1093;27211;-59
2021/07/07 07:20:57;;;;;;;9.38;1.00;;;;;;;23.74;60.41;100169.59;125631;1093;22770;-58
2021/07/07 07:23:29;;;;;;;3.10;1.05;;;;;;;23.76;60.27;100178.33;125592;1093;28541;-58
2021/07/07 07:26:37;;;;;;;2.58;0.85;;;;;;;23.70;60.11;100175.68;125860;1093;27214;-58
2021/07/07 07:29:32;;;;;;;5.30;1.08;;;;;;;23.65;60.16;100168.08;125640;1093;22782;-61
2021/07/07 07:32:04;;;;;;;6.88;1.20;;;;;;;23.68;60.17;100172.64;125992;1093;22781;-59
2021/07/07 07:34:36;;;;;;;3.80;1.00;;;;;;;23.69;60.43;100171.30;125921;1093;26279;-59
2021/07/07 07:37:20;;;;;;;6.20;1.18;;;;;;;23.74;60.35;100169.59;125774;1092;22775;-57
2021/07/07 07:39:53;;;;;;;5.90;1.00;;;;;;;23.83;60.40;100177.56;125686;1092;23305;-57
2021/07/07 07:42:25;;;;;;;4.68;1.10;;;;;;;23.91;60.59;100166.89;126253;1093;22822;-60
2021/07/07 07:44:59;;;;;;;3.88;1.13;;;;;;;24.01;60.39;100165.73;125734;1093;22922;-59
2021/07/07 07:47:31;;;;;;;4.63;0.98;;;;;;;24.09;60.21;100165.72;125760;1092;22797;-58
2021/07/07 07:50:04;;;;;;;4.48;1.00;;;;;;;24.15;60.14;100168.39;125755;1093;22861;-57
2021/07/07 07:52:35;;;;;;;4.90;1.03;;;;;;;24.22;59.96;100164.73;125775;1092;25679;-56
2021/07/07 07:55:09;;;;;;;4.83;1.00;;;;;;;24.28;59.97;100159.57;125705;1092;22787;-56
2021/07/07 07:57:42;;;;;;;6.43;1.28;;;;;;;24.33;59.58;100162.23;125862;1093;22764;-56
2021/07/07 08:00:18;;;;;;;9.70;1.10;;;;;;;24.37;59.39;100159.73;125707;1092;27276;-58
2021/07/07 08:02:50;;;;;;;6.88;0.90;;;;;;;24.41;59.27;100162.19;125772;1093;22773;-58
2021/07/07 08:05:22;;;;;;;2.80;1.00;;;;;;;24.42;58.88;100160.83;125766;1093;22768;-58
2021/07/07 08:07:58;;;;;;;6.40;1.10;;;;;;;24.44;59.03;100163.87;125724;1093;22794;-58
2021/07/07 08:10:31;;;;;;;5.53;0.90;;;;;;;24.49;58.99;100168.61;126167;1093;22764;-57
2021/07/07 08:13:02;;;;;;;6.10;1.00;;;;;;;24.52;58.84;100164.62;125784;1093;25839;-60
2021/07/07 08:15:34;;;;;;;6.43;1.05;;;;;;;24.55;58.60;100166.30;125729;1093;22797;-60
2021/07/07 08:18:06;;;;;;;3.78;1.58;;;;;;;24.55;58.33;100157.73;125804;1093;22787;-59
2021/07/07 08:20:42;;;;;;;5.40;1.23;;;;;;;24.61;57.85;100164.75;125831;1093;23659;-60
2021/07/07 08:23:13;;;;;;;4.68;1.10;;;;;;;24.67;58.49;100165.28;125773;1093;22758;-56
2021/07/07 08:25:46;;;;;;;6.58;1.15;;;;;;;24.74;58.55;100167.38;125754;1093;22773;-58
2021/07/07 08:28:18;;;;;;;4.65;1.08;;;;;;;24.83;58.15;100169.58;125766;1093;26519;-58
2021/07/07 08:30:50;;;;;;;3.45;1.18;;;;;;;24.89;57.82;100170.11;125849;1093;27544;-59
2021/07/07 08:33:21;;;;;;;6.20;1.00;;;;;;;24.93;57.64;100155.45;125883;1093;22819;-59
2021/07/07 08:35:55;;;;;;;5.13;0.90;;;;;;;24.95;57.86;100152.00;125804;1093;22761;-59
2021/07/07 08:38:27;;;;;;;3.00;0.80;;;;;;;25.01;57.42;100144.73;125768;1093;23216;-57
2021/07/07 08:41:00;;;;;;;3.48;0.90;;;;;;;25.05;57.65;100147.17;125976;1093;23266;-59
2021/07/07 08:43:31;;;;;;;5.40;1.00;;;;;;;25.10;57.50;100141.21;126072;1093;22760;-58
2021/07/07 08:46:03;;;;;;;5.83;1.10;;;;;;;25.20;57.40;100147.06;125835;1093;27933;-57
2021/07/07 08:48:34;;;;;;;6.83;1.13;;;;;;;25.26;57.42;100142.63;125902;1093;23295;-58
2021/07/07 08:51:08;;;;;;;7.28;0.90;;;;;;;25.32;57.04;100156.67;125887;1093;23357;-60
2021/07/07 08:53:41;;;;;;;3.47;1.00;;;;;;;25.36;57.16;100146.34;125947;1093;26648;-57
2021/07/07 08:56:13;;;;;;;3.13;1.10;;;;;;;25.42;56.77;100146.89;125842;1093;22898;-56
2021/07/07 08:58:46;;;;;;;2.68;0.83;;;;;;;25.48;56.85;100149.50;125893;1093;26358;-60
2021/07/07 09:01:18;;;;;;;4.75;0.93;;;;;;;25.56;56.58;100150.19;125791;1093;22786;-57
2021/07/07 09:03:50;;;;;;;10.23;1.07;;;;;;;25.62;56.78;100145.73;125713;1093;22751;-59
2021/07/07 09:06:22;;;;;;;5.98;1.00;;;;;;;25.75;56.82;100149.61;125699;1093;24465;-59
2021/07/07 09:08:54;;;;;;;4.48;1.10;;;;;;;25.81;56.30;100156.61;130061;1092;22490;-60
2021/07/07 09:11:27;;;;;;;6.00;1.10;;;;;;;25.88;55.58;100155.02;130067;1092;22612;-60
2021/07/07 09:14:12;;;;;;;5.60;1.00;;;;;;;25.89;55.88;100167.95;128555;1092;27737;-59
2021/07/07 09:16:56;;;;;;;4.33;1.10;;;;;;;25.96;55.96;100156.45;125817;1092;22851;-59
2021/07/07 09:19:28;;;;;;;3.43;1.08;;;;;;;26.06;55.59;100165.10;125835;1093;22758;-62
2021/07/07 09:22:04;;;;;;;5.33;1.10;;;;;;;26.10;55.68;100156.88;126027;1093;22799;-59
2021/07/07 09:24:38;;;;;;;3.23;1.00;;;;;;;26.16;55.96;100152.42;125771;1093;22797;-60
2021/07/07 09:27:13;;;;;;;6.23;1.25;;;;;;;26.25;55.31;100159.57;126012;1093;23260;-60
2021/07/07 09:29:51;;;;;;;6.15;1.30;;;;;;;26.30;55.42;100153.58;125799;1093;22790;-60
2021/07/07 09:32:27;;;;;;;6.00;1.10;;;;;;;26.35;54.85;100164.02;125779;1093;26254;-58
2021/07/07 09:35:02;;;;;;;4.77;1.37;;;;;;;26.41;55.00;100167.38;125907;1093;22757;-56
2021/07/07 09:37:37;;;;;;;3.88;1.13;;;;;;;26.48;54.80;100170.73;126102;1093;27367;-59
2021/07/07 09:40:12;;;;;;;6.23;1.30;;;;;;;26.54;54.51;100174.08;126009;1093;25871;-59
2021/07/07 09:42:46;;;;;;;5.68;1.20;;;;;;;26.69;54.30;100168.16;125803;1093;22768;-59
2021/07/07 09:45:24;;;;;;;4.98;1.10;;;;;;;26.78;54.06;100165.38;125905;1093;22870;-60
2021/07/07 09:47:55;;;;;;;6.78;1.05;;;;;;;26.83;53.71;100164.35;125854;1093;24484;-59
2021/07/07 09:50:29;;;;;;;5.15;1.10;;;;;;;26.86;53.75;100170.98;125806;1093;26369;-60
2021/07/07 09:53:01;;;;;;;7.40;1.13;;;;;;;26.94;53.33;100180.98;126373;1093;25874;-58
2021/07/07 09:55:33;;;;;;;8.83;1.40;;;;;;;26.98;53.05;100172.70;126105;1093;22917;-56
2021/07/07 09:58:05;;;;;;;5.33;1.25;;;;;;;26.97;53.09;100182.66;125859;1092;23480;-55
2021/07/07 10:00:39;;;;;;;6.65;1.10;;;;;;;27.03;53.48;100190.98;125967;1093;22770;-59
2021/07/07 10:03:11;;;;;;;6.20;1.20;;;;;;;27.04;53.21;100184.64;125820;1093;22851;-57
2021/07/07 10:05:49;;;;;;;4.63;1.10;;;;;;;27.08;52.65;100187.09;125977;1093;24426;-58
2021/07/07 10:08:21;;;;;;;3.73;1.10;;;;;;;27.09;52.69;100189.35;125800;1093;27191;-59
2021/07/07 10:10:56;;;;;;;6.35;1.00;;;;;;;27.13;52.23;100194.64;125956;1093;27265;-57
2021/07/07 10:13:29;;;;;;;3.15;1.10;;;;;;;27.21;52.28;100201.01;125852;1092;22927;-59
2021/07/07 10:16:03;;;;;;;5.33;1.20;;;;;;;27.30;52.53;100202.41;125850;1093;27371;-60
2021/07/07 10:18:36;;;;;;;5.45;1.10;;;;;;;27.41;52.60;100202.64;125946;1093;22770;-58
2021/07/07 10:21:08;;;;;;;3.48;1.10;;;;;;;27.47;52.02;100188.78;125863;1093;22791;-58
2021/07/07 10:23:41;;;;;;;6.55;1.20;;;;;;;27.52;51.90;100198.45;125851;1091;22858;-58
2021/07/07 10:26:13;;;;;;;3.95;1.10;;;;;;;27.60;51.28;100196.21;125773;1091;26261;-59
2021/07/07 10:28:45;;;;;;;4.63;1.00;;;;;;;27.60;51.16;100199.08;125864;1093;22794;-60
2021/07/07 10:31:16;;;;;;;3.85;1.20;;;;;;;27.55;50.66;100192.27;125528;1093;22928;-60
2021/07/07 10:33:48;;;;;;;12.63;1.10;;;;;;;27.61;51.84;100189.87;125759;1093;22761;-59
2021/07/07 10:36:24;;;;;;;4.00;1.20;;;;;;;27.73;50.47;100202.27;125718;1092;22767;-60
2021/07/07 10:38:59;;;;;;;6.58;1.20;;;;;;;27.73;50.31;100204.38;125919;1093;22787;-59
2021/07/07 10:41:53;;;;;;;4.33;1.03;;;;;;;27.71;50.53;100193.51;125878;1093;22788;-62
2021/07/07 10:44:53;;;;;;;7.43;1.33;;;;;;;27.82;50.04;100201.55;125769;1092;23421;-60
2021/07/07 10:47:39;;;;;;;5.63;1.23;;;;;;;27.85;49.39;100200.33;125860;1092;22833;-59
2021/07/07 10:50:33;;;;;;;5.80;1.20;;;;;;;27.82;49.88;100200.78;126141;1093;22803;-60
2021/07/07 10:53:24;;;;;;;4.43;1.00;;;;;;;27.88;49.52;100204.11;125943;1093;22787;-59
2021/07/07 10:55:58;;;;;;;7.40;1.38;;;;;;;27.87;49.67;100206.22;125829;1092;22816;-60
2021/07/07 10:58:32;;;;;;;6.90;1.00;;;;;;;27.88;49.58;100215.59;126045;1093;24576;-60
2021/07/07 11:01:05;;;;;;;6.15;0.93;;;;;;;27.88;50.14;100209.84;125848;1093;23458;-59
2021/07/07 11:03:39;;;;;;;4.95;1.03;;;;;;;27.98;50.15;100210.64;125830;1093;26280;-61
2021/07/07 11:06:38;;;;;;;19.58;2.68;;;;;;;28.06;49.70;100204.78;125970;1093;22823;-60
2021/07/07 11:09:17;;;;;;;7.33;1.10;;;;;;;28.15;49.78;100212.63;125639;1095;22800;-59
2021/07/07 11:11:49;;;;;;;16.58;1.85;;;;;;;28.21;49.66;100213.08;125711;1096;27189;-59
2021/07/07 11:14:28;;;;;;;19.78;1.58;;;;;;;28.22;49.39;100212.50;125603;1096;27214;-59
2021/07/07 11:17:01;;;;;;;4.93;0.90;;;;;;;28.23;49.07;100208.25;125834;1096;28948;-60
2021/07/07 11:19:46;;;;;;;3.38;0.98;;;;;;;28.25;49.44;100208.41;125629;1096;22803;-59
2021/07/07 11:22:19;;;;;;;4.80;0.98;;;;;;;28.34;48.99;100218.38;125753;1096;22835;-61
2021/07/07 11:24:53;;;;;;;11.85;1.20;;;;;;;28.36;48.84;100215.66;125693;1096;22797;-62
2021/07/07 11:27:27;;;;;;;6.48;1.65;;;;;;;28.28;48.42;100223.67;125614;1097;22891;-61
2021/07/07 11:29:59;;;;;;;11.00;0.83;;;;;;;28.15;48.60;100221.23;125725;1096;22761;-61
2021/07/07 11:32:32;;;;;;;6.80;0.80;;;;;;;28.07;48.36;100226.37;125719;1097;24481;-64
2021/07/07 11:35:06;;;;;;;3.23;0.70;;;;;;;27.92;48.24;100227.38;125757;1097;22773;-61
2021/07/07 11:37:39;;;;;;;6.58;0.70;;;;;;;27.75;48.16;100239.72;125659;1096;22774;-62
2021/07/07 11:40:14;;;;;;;8.05;0.73;;;;;;;27.60;48.86;100233.50;125529;1096;22792;-59
2021/07/07 11:43:02;;;;;;;7.50;0.88;;;;;;;27.48;49.29;100244.75;125626;1096;22776;-60
2021/07/07 11:45:37;;;;;;;5.13;0.60;;;;;;;27.43;49.29;100262.25;125663;1094;23047;-60
2021/07/07 11:48:14;;;;;;;9.78;0.60;;;;;;;27.35;49.67;100258.74;125990;1093;22769;-61